Station: Clare  

  Atmospheric Gas Attenuation - ITU Rec 676-11   ----------------- dB/100km -----------------
Date Time Temp RH % AH g/m3 Dew Point Wind Direction Speed kph Gust kph Barometer mB Rainfall Since 9am 24GHz 47GHz 76GHz 122GHz 134GHz 241GHz
06/05 11:00 14.3 80 9.83 10.9 11 20 1024.4 0 22.2 28.2 45.1 118.4 115.3 397.6
06/05 10:50 14 84 10.13 11.3 15 17 1024.4 0 22.8 28.8 46.5 122.3 119.9 413.7
06/05 09:10 10.5 88 8.54 8.6 0 0 1024.9 0 19.6 27.2 41.8 109.5 102.9 353.5
06/05 09:00 10.1 88 8.32 8.2 2 7 1024.8 0 19.2 27.0 41.1 107.6 100.3 344.6
06/05 08:50 10 89 8.36 8.3 0 0 1024.9 0 19.2 27.1 41.3 108.2 101.0 347.0
06/05 08:40 9.7 88 8.11 7.8 0 0 1024.8 0 18.7 26.7 40.4 105.8 97.9 336.1
06/05 08:30 9.6 89 8.16 7.9 0 0 1024.6 0 18.8 26.8 40.6 106.5 98.7 339.0
06/05 08:20 9.5 91 8.29 8.1 0 0 1024.5 0 19.1 27.1 41.2 108.1 100.7 345.7
06/05 08:10 9.2 93 8.31 8.1 0 0 1024.4 0 19.2 27.2 41.5 108.7 101.3 348.0
06/05 08:00 8.7 94 8.13 7.8 0 0 1024.2 0 18.8 27.1 41.0 107.3 99.4 341.3
06/05 07:50 8.2 94 7.88 7.3 0 0 1024.2 0 18.3 26.8 40.2 105.2 96.6 331.2
06/05 07:40 8.3 95 8.01 7.5 0 0 1024 0 18.6 27.0 40.6 106.5 98.3 337.1
06/05 07:30 8.1 95 7.91 7.3 0 0 1023.8 0 18.4 26.8 40.3 105.6 97.1 333.0
06/05 07:20 7.9 95 7.81 7.1 0 0 1023.9 0 18.2 26.7 40.0 104.7 96.0 329.0
06/05 07:10 8 95 7.86 7.2 0 0 1023.8 0 18.3 26.8 40.2 105.2 96.5 331.0
06/05 07:00 8 95 7.86 7.2 0 0 1023.7 0 18.3 26.8 40.1 105.2 96.5 331.0
06/05 06:50 7.9 95 7.81 7.1 0 0 1023.8 0 18.2 26.7 40.0 104.7 95.9 328.9
06/05 06:40 7.9 95 7.81 7.1 0 0 1023.7 0 18.2 26.7 40.0 104.7 95.9 328.9
06/05 06:30 7.8 95 7.76 7.1 0 0 1023.6 0 18.1 26.7 39.8 104.3 95.4 326.9
06/05 06:20 7.8 95 7.76 7.1 0 0 1023.7 0 18.1 26.7 39.8 104.3 95.4 326.9
06/05 06:10 7.8 95 7.76 7.1 0 0 1023.6 0 18.1 26.7 39.8 104.3 95.4 326.9
06/05 06:00 7.7 95 7.71 7 0 4 1023.5 0 18.0 26.6 39.7 103.8 94.8 324.8
06/05 05:50 7.6 95 7.66 6.9 0 0 1023.5 0 17.9 26.6 39.5 103.4 94.2 322.8
06/05 05:40 7.6 95 7.66 6.9 4 6 1023.6 0 17.9 26.6 39.5 103.4 94.2 322.8
06/05 05:30 7.7 95 7.71 7 0 2 1023.5 0 18.0 26.6 39.7 103.8 94.8 324.8
06/05 05:20 7.7 95 7.71 7 4 6 1023.7 0 18.0 26.6 39.7 103.9 94.8 324.9
06/05 05:10 7.7 95 7.71 7 2 4 1023.7 0 18.0 26.6 39.7 103.9 94.8 324.9
06/05 05:00 7.7 95 7.71 7 2 7 1023.6 0 18.0 26.6 39.7 103.8 94.8 324.8
06/05 04:50 7.7 96 7.79 7.1 4 6 1023.6 0 18.1 26.8 40.0 104.8 95.9 328.8
06/05 04:40 7.7 96 7.79 7.1 0 0 1023.6 0 18.1 26.8 40.0 104.8 95.9 328.8
06/05 04:30 7.7 96 7.79 7.1 0 0 1023.5 0 18.1 26.8 40.0 104.7 95.9 328.7
06/05 04:20 7.6 96 7.74 7 0 0 1023.6 0 18.0 26.7 39.8 104.3 95.3 326.7
06/05 04:10 7.6 96 7.74 7 0 0 1023.5 0 18.0 26.7 39.8 104.3 95.3 326.7
06/05 04:00 7.6 96 7.74 7 0 0 1023.4 0 18.0 26.7 39.8 104.3 95.3 326.7
06/05 03:50 7.5 96 7.69 6.9 0 0 1023.5 0 17.9 26.6 39.7 103.9 94.7 324.7
06/05 03:40 7.3 96 7.59 6.7 0 0 1023.5 0 17.7 26.5 39.3 103.0 93.6 320.6
06/05 03:30 7.2 95 7.46 6.5 0 0 1023.4 0 17.4 26.3 38.8 101.7 91.9 314.6
06/05 03:20 7.4 95 7.56 6.7 0 0 1023.5 0 17.6 26.4 39.2 102.5 93.0 318.7
06/05 03:10 7.8 96 7.84 7.2 0 0 1023.5 0 18.2 26.8 40.2 105.2 96.5 330.8
06/05 03:00 7.9 96 7.89 7.3 0 0 1023.4 0 18.3 26.9 40.3 105.6 97.0 332.8
06/05 02:50 8.1 96 7.99 7.5 0 0 1023.6 0 18.5 27.0 40.6 106.5 98.2 336.9
06/05 02:40 7.9 96 7.89 7.3 0 0 1023.7 0 18.3 26.9 40.3 105.6 97.1 332.9
06/05 02:30 7.8 96 7.84 7.2 0 0 1023.7 0 18.2 26.8 40.2 105.2 96.5 330.8
06/05 02:20 7.7 96 7.79 7.1 0 0 1023.8 0 18.1 26.8 40.0 104.8 95.9 328.8
06/05 02:10 7.6 96 7.74 7 0 0 1023.9 0 18.0 26.7 39.8 104.4 95.3 326.8
06/05 02:00 7.7 96 7.79 7.1 0 0 1023.8 0 18.1 26.8 40.0 104.8 95.9 328.8
06/05 01:50 7.5 96 7.69 6.9 0 0 1024 0 17.9 26.7 39.7 103.9 94.8 324.8
06/05 01:40 7.3 96 7.59 6.7 0 0 1024 0 17.7 26.5 39.4 103.1 93.6 320.7
06/05 01:30 7.2 96 7.54 6.6 0 0 1023.9 0 17.6 26.5 39.2 102.6 93.0 318.7
06/05 01:20 7.2 96 7.54 6.6 0 0 1024 0 17.6 26.5 39.2 102.6 93.0 318.7
06/05 01:10 7.2 96 7.54 6.6 0 0 1024 0 17.6 26.5 39.2 102.6 93.0 318.7
06/05 01:00 7.1 96 7.49 6.5 0 0 1024.1 0 17.5 26.4 39.0 102.2 92.5 316.7
06/05 00:50 7.3 96 7.59 6.7 0 0 1024.2 0 17.7 26.6 39.4 103.1 93.6 320.8
06/05 00:40 7.3 96 7.59 6.7 2 6 1024.2 0 17.7 26.6 39.4 103.1 93.6 320.8
06/05 00:30 7 96 7.44 6.4 0 0 1024.3 0 17.4 26.4 38.9 101.8 91.9 314.7
06/05 00:20 7.1 96 7.49 6.5 0 0 1024.3 0 17.5 26.4 39.1 102.2 92.5 316.7
06/05 00:10 7.2 96 7.54 6.6 0 0 1024.3 0 17.6 26.5 39.2 102.7 93.1 318.8
06/05 00:00 7.1 96 7.49 6.5 0 0 1024.4 0 17.5 26.5 39.1 102.2 92.5 316.7
05/05 23:50 6.9 96 7.39 6.3 0 0 1024.4 0 17.3 26.3 38.7 101.4 91.3 312.6
05/05 23:40 7 96 7.44 6.4 0 0 1024.4 0 17.4 26.4 38.9 101.8 91.9 314.7
05/05 23:30 7 95 7.36 6.3 0 0 1024.4 0 17.2 26.3 38.6 100.9 90.8 310.8
05/05 23:20 7 95 7.36 6.3 0 0 1024.4 0 17.2 26.3 38.6 100.9 90.8 310.8
05/05 23:10 7 95 7.36 6.3 0 0 1024.4 0 17.2 26.3 38.6 100.9 90.8 310.8
05/05 23:00 6.9 95 7.32 6.2 0 0 1024.5 0 17.2 26.2 38.4 100.6 90.4 309.2
05/05 22:50 7 94 7.29 6.1 0 0 1024.5 0 17.1 26.1 38.3 100.1 89.8 307.4
05/05 22:40 7.3 94 7.43 6.4 0 0 1024.7 0 17.4 26.3 38.7 101.3 91.4 313.1
05/05 22:30 7.4 94 7.48 6.5 0 0 1024.7 0 17.5 26.4 38.9 101.8 92.0 315.1
05/05 22:20 7.9 94 7.72 7 0 0 1024.9 0 18.0 26.6 39.7 103.8 94.8 324.8
05/05 22:10 8 94 7.77 7.1 0 0 1024.9 0 18.1 26.7 39.8 104.3 95.3 326.9
05/05 22:00 8.5 94 8.03 7.6 0 0 1024.9 0 18.6 27.0 40.7 106.5 98.4 337.5
05/05 21:50 8.5 94 8.03 7.6 0 0 1025.1 0 18.6 27.0 40.7 106.6 98.4 337.5
05/05 21:40 8.5 94 8.03 7.6 0 0 1025.1 0 18.6 27.0 40.7 106.6 98.4 337.5
05/05 21:30 8.6 94 8.08 7.7 0 0 1024.9 0 18.7 27.0 40.8 107.0 98.9 339.5
05/05 21:20 8.4 94 7.98 7.5 0 0 1025 0 18.5 26.9 40.5 106.1 97.8 335.5
05/05 21:10 8.5 93 7.94 7.4 0 0 1025 0 18.4 26.8 40.3 105.5 97.1 333.1
05/05 21:00 8.6 93 7.99 7.5 0 0 1024.9 0 18.5 26.9 40.4 105.9 97.7 335.1
05/05 20:50 8.8 92 8.01 7.6 0 0 1025.1 0 18.6 26.9 40.4 105.9 97.7 335.2
05/05 20:40 9 92 8.11 7.8 0 0 1025.2 0 18.8 27.0 40.8 106.8 98.9 339.3
05/05 20:30 9 92 8.11 7.8 0 0 1025.1 0 18.8 27.0 40.8 106.8 98.9 339.3
05/05 20:20 9.3 92 8.27 8.1 0 0 1025.1 0 19.1 27.1 41.3 108.2 100.7 345.8
05/05 20:10 9.2 92 8.22 8 0 0 1025.1 0 19.0 27.1 41.1 107.8 100.1 343.8
05/05 20:00 9.1 92 8.17 7.9 0 0 1025 0 18.9 27.0 41.0 107.3 99.6 341.7
05/05 19:50 9.1 92 8.17 7.9 0 0 1025 0 18.9 27.0 41.0 107.3 99.6 341.7
05/05 19:40 9 92 8.11 7.8 0 0 1025.1 0 18.8 27.0 40.8 106.8 98.9 339.3
05/05 19:30 9 92 8.11 7.8 0 0 1025 0 18.8 27.0 40.8 106.8 98.8 339.2
05/05 19:20 8.8 91 7.92 7.4 0 0 1025.1 0 18.4 26.7 40.1 104.9 96.5 330.9
05/05 19:10 8.7 90 7.79 7.2 0 0 1025 0 18.1 26.5 39.6 103.6 94.8 324.9
05/05 19:00 8.8 89 7.75 7.1 0 0 1024.8 0 18.0 26.4 39.3 103.0 94.1 322.5
05/05 18:50 9 89 7.85 7.3 0 0 1024.8 0 18.2 26.5 39.6 103.8 95.2 326.5
05/05 18:40 9.1 88 7.81 7.2 0 0 1024.7 0 18.1 26.4 39.4 103.2 94.5 324.2
05/05 18:30 9.5 87 7.92 7.4 0 0 1024.5 0 18.3 26.5 39.7 103.9 95.5 327.7
05/05 18:20 9.8 85 7.89 7.4 0 0 1024.4 0 18.2 26.3 39.4 103.2 94.7 325.0
05/05 18:10 10.2 83 7.9 7.4 0 0 1024.4 0 18.3 26.2 39.2 102.7 94.4 323.8
05/05 18:00 10.6 82 8.01 7.7 0 4 1024.3 0 18.5 26.3 39.5 103.4 95.4 327.4
05/05 17:50 11.1 80 8.06 7.8 2 6 1024.2 0 18.6 26.2 39.4 103.3 95.4 327.6
05/05 17:40 11.3 77 7.86 7.4 4 6 1024.2 0 18.1 25.8 38.5 100.9 92.5 317.4
05/05 17:30 11.8 74 7.79 7.3 6 7 1024.1 0 17.9 25.6 38.0 99.5 91.0 312.1
05/05 17:20 12.2 73 7.88 7.5 2 6 1024 0 18.1 25.6 38.2 99.9 91.7 314.7
05/05 17:10 12.6 71 7.86 7.5 4 6 1023.9 0 18.1 25.4 37.9 99.2 90.9 312.1
05/05 17:00 12.9 70 7.89 7.6 9 19 1023.8 0 18.1 25.4 37.9 99.1 91.0 312.3

Last Refresh: 06-May-2026 11:13:19

Bureau of Meteorology